createdAt,value
2019-04-04T00:02:45.544Z,17.87
2019-04-04T00:06:48.564Z,17.27
2019-04-04T00:10:51.586Z,18.47
2019-04-04T00:14:55.616Z,20.70
2019-04-04T00:18:59.175Z,20.50
2019-04-04T00:23:02.267Z,19.10
2019-04-04T00:27:05.381Z,20.87
2019-04-04T00:31:08.388Z,26.47
2019-04-04T00:35:11.424Z,21.80
2019-04-04T00:39:14.427Z,21.67
2019-04-04T00:43:20.730Z,28.00
2019-04-04T00:47:22.386Z,30.90
2019-04-04T00:51:25.392Z,28.67
2019-04-04T00:55:28.428Z,27.30
2019-04-04T00:59:31.440Z,30.37
2019-04-04T01:03:34.469Z,27.60
2019-04-04T01:07:37.536Z,24.53
2019-04-04T01:11:40.529Z,28.80
2019-04-04T01:15:45.502Z,30.80
2019-04-04T01:19:49.030Z,27.70
2019-04-04T01:23:53.063Z,29.53
2019-04-04T01:27:56.074Z,27.73
2019-04-04T01:31:59.106Z,30.33
2019-04-04T01:36:02.329Z,26.30
2019-04-04T01:40:06.025Z,29.20
2019-04-04T01:44:11.176Z,28.60
2019-04-04T01:48:13.947Z,33.30
2019-04-04T01:52:16.954Z,29.33
2019-04-04T01:56:20.020Z,28.97
2019-04-04T02:00:23.027Z,31.70
2019-04-04T02:04:26.027Z,28.93
2019-04-04T02:08:31.395Z,27.00
2019-04-04T02:12:33.946Z,29.53
2019-04-04T02:16:38.184Z,28.73
2019-04-04T02:20:41.184Z,29.93
2019-04-04T02:24:44.195Z,30.73
2019-04-04T02:28:47.287Z,29.77
2019-04-04T02:32:50.322Z,28.67
2019-04-04T02:36:53.356Z,34.97
2019-04-04T02:40:56.618Z,26.83
2019-04-04T02:44:59.609Z,29.30
2019-04-04T02:49:02.728Z,30.83
2019-04-04T02:53:05.755Z,28.53
2019-04-04T02:57:09.585Z,28.60
2019-04-04T03:01:12.802Z,27.67
2019-04-04T03:05:18.808Z,33.70
2019-04-04T03:09:20.740Z,31.33
2019-04-04T03:13:23.835Z,27.97
2019-04-04T03:17:31.481Z,28.63
2019-04-04T03:21:32.817Z,28.37
2019-04-04T03:25:35.828Z,30.87
2019-04-04T03:29:38.856Z,29.63
2019-04-04T03:33:41.861Z,31.47
2019-04-04T03:37:46.340Z,31.43
2019-04-04T03:41:49.526Z,34.97
2019-04-04T03:45:52.551Z,34.57
2019-04-04T03:49:57.510Z,31.93
2019-04-04T03:54:02.388Z,33.07
2019-04-04T03:58:05.393Z,33.63
2019-04-04T04:02:08.401Z,30.70
2019-04-04T04:06:11.409Z,32.80
2019-04-04T04:10:14.408Z,35.87
2019-04-04T04:14:15.488Z,40.70
2019-04-04T04:18:21.261Z,38.03
2019-04-04T04:22:24.434Z,35.80
2019-04-04T04:26:27.535Z,39.23
2019-04-04T04:30:30.750Z,40.30
2019-04-04T04:34:34.354Z,37.57
2019-04-04T04:38:37.397Z,41.63
2019-04-04T04:42:40.480Z,41.97
2019-04-04T04:46:43.524Z,37.70
2019-04-04T04:50:46.538Z,35.70
2019-04-04T04:54:49.688Z,32.40
2019-04-04T04:58:55.406Z,39.20
2019-04-04T05:02:57.860Z,36.03
2019-04-04T05:07:00.876Z,40.53
2019-04-04T05:11:03.976Z,36.27
2019-04-04T05:15:07.099Z,35.80
2019-04-04T05:19:11.359Z,36.07
2019-04-04T05:23:15.518Z,38.73
2019-04-04T05:27:19.359Z,32.80
2019-04-04T05:31:22.371Z,33.07
2019-04-04T05:35:25.408Z,35.10
2019-04-04T05:39:28.407Z,37.50
2019-04-04T05:43:31.425Z,35.40
2019-04-04T05:47:34.457Z,37.90
2019-04-04T05:51:37.447Z,40.07
2019-04-04T05:55:41.837Z,44.07
2019-04-04T05:59:45.377Z,36.40
2019-04-04T06:03:48.383Z,34.87
2019-04-04T06:07:51.400Z,36.63
2019-04-04T06:11:54.412Z,39.03
2019-04-04T06:15:57.577Z,32.67
2019-04-04T06:20:01.519Z,38.53
2019-04-04T06:24:04.747Z,36.67
2019-04-04T06:28:07.993Z,36.10
2019-04-04T06:32:11.176Z,39.03
2019-04-04T06:36:14.241Z,39.40
2019-04-04T06:40:17.639Z,38.00
2019-04-04T06:44:20.725Z,38.90
2019-04-04T06:48:24.609Z,34.87
2019-04-04T06:52:27.646Z,40.13
2019-04-04T06:56:32.017Z,34.53
2019-04-04T07:00:35.579Z,33.37
2019-04-04T07:04:38.588Z,38.07
2019-04-04T07:08:41.612Z,35.70
2019-04-04T07:12:44.664Z,32.00
2019-04-04T07:16:47.783Z,33.77
2019-04-04T07:20:52.149Z,36.10
2019-04-04T07:24:55.170Z,35.80
2019-04-04T07:28:58.185Z,36.33
2019-04-04T07:33:01.294Z,34.73
2019-04-04T07:37:04.407Z,33.27
2019-04-04T07:41:08.427Z,35.60
2019-04-04T07:45:14.338Z,40.23
2019-04-04T07:49:17.842Z,38.93
2019-04-04T07:53:20.884Z,38.03
2019-04-04T07:57:23.889Z,39.00
2019-04-04T08:01:27.249Z,41.00
2019-04-04T08:05:30.240Z,41.77
2019-04-04T08:09:33.258Z,39.57
2019-04-04T08:13:36.291Z,41.03
2019-04-04T08:17:39.352Z,43.50
2019-04-04T08:21:43.584Z,38.00
2019-04-04T08:25:46.659Z,42.67
2019-04-04T08:29:49.653Z,37.40
2019-04-04T08:33:52.652Z,37.00
2019-04-04T08:37:55.733Z,35.03
2019-04-04T08:41:58.832Z,39.87
2019-04-04T08:46:01.834Z,33.47
2019-04-04T08:50:05.037Z,37.67
2019-04-04T08:54:08.052Z,37.23
2019-04-04T08:58:11.172Z,35.97
2019-04-04T09:02:14.266Z,33.93
2019-04-04T09:06:17.417Z,41.80
2019-04-04T09:10:20.439Z,32.43
2019-04-04T09:14:23.508Z,30.53
2019-04-04T09:18:26.744Z,31.47
2019-04-04T09:22:30.408Z,29.07
2019-04-04T09:26:33.433Z,27.07
2019-04-04T09:30:36.548Z,26.87
2019-04-04T09:34:39.570Z,26.90
2019-04-04T09:38:42.578Z,25.10
2019-04-04T09:42:45.604Z,24.67
2019-04-04T09:46:48.609Z,23.87
2019-04-04T09:50:51.626Z,21.77
2019-04-04T09:54:54.837Z,23.50
2019-04-04T09:58:57.896Z,19.30
2019-04-04T10:03:00.991Z,17.40
2019-04-04T10:07:04.030Z,15.50
2019-04-04T10:11:07.258Z,15.30
2019-04-04T10:15:10.755Z,17.50
2019-04-04T10:19:13.774Z,16.87
2019-04-04T10:23:18.094Z,16.20
2019-04-04T10:27:21.109Z,12.57
2019-04-04T10:31:24.136Z,12.43
2019-04-04T10:35:27.133Z,15.20
2019-04-04T10:39:32.704Z,12.80
2019-04-04T10:43:35.063Z,11.73
2019-04-04T10:47:38.073Z,9.23
2019-04-04T10:51:41.140Z,10.97
2019-04-04T10:55:44.252Z,9.83
2019-04-04T10:59:47.287Z,8.97
2019-04-04T11:03:50.295Z,7.77
2019-04-04T11:07:53.312Z,7.90
2019-04-04T11:11:56.326Z,7.83
2019-04-04T11:15:59.467Z,7.60
2019-04-04T11:20:04.681Z,9.03
2019-04-04T11:24:08.711Z,7.10
2019-04-04T11:28:11.812Z,6.33
2019-04-04T11:32:14.816Z,7.87
2019-04-04T11:36:17.851Z,7.07
2019-04-04T11:40:20.956Z,7.17
2019-04-04T11:44:24.051Z,6.57
2019-04-04T11:48:27.154Z,6.53
2019-04-04T11:52:30.159Z,6.23
2019-04-04T11:56:33.180Z,6.70
2019-04-04T12:00:38.134Z,5.93
2019-04-04T12:04:42.236Z,6.10
2019-04-04T12:08:46.132Z,8.07
2019-04-04T12:12:49.701Z,6.87
2019-04-04T12:16:52.889Z,8.07
2019-04-04T12:20:55.984Z,8.50
2019-04-04T12:24:59.888Z,7.80
2019-04-04T12:29:03.100Z,7.33
2019-04-04T12:33:06.129Z,7.50
2019-04-04T12:37:09.151Z,6.10
2019-04-04T12:41:12.172Z,6.63
2019-04-04T12:45:15.379Z,6.23
2019-04-04T12:49:18.377Z,6.93
2019-04-04T12:53:21.471Z,6.70
2019-04-04T12:57:24.483Z,6.73
2019-04-04T13:01:28.878Z,6.67
2019-04-04T13:05:33.111Z,7.00
2019-04-04T13:09:39.153Z,7.53
2019-04-04T13:13:42.195Z,6.30
2019-04-04T13:17:45.290Z,7.47
2019-04-04T13:21:48.805Z,6.57
2019-04-04T13:25:53.458Z,7.23
2019-04-04T13:29:56.468Z,7.03
2019-04-04T13:33:59.484Z,6.83
2019-04-04T13:38:02.479Z,8.50
2019-04-04T13:42:07.379Z,15.67
2019-04-04T13:46:11.182Z,14.03
2019-04-04T13:50:19.769Z,6.70
2019-04-04T13:54:20.359Z,8.90
2019-04-04T13:58:23.371Z,7.33
2019-04-04T14:02:26.694Z,7.87
2019-04-04T14:06:29.865Z,6.90
2019-04-04T14:10:32.976Z,7.27
2019-04-04T14:14:36.476Z,6.77
2019-04-04T14:18:42.370Z,15.00
2019-04-04T14:22:45.110Z,10.23
2019-04-04T14:26:48.772Z,6.27
2019-04-04T14:30:51.900Z,7.30
2019-04-04T14:34:54.957Z,6.40
2019-04-04T14:38:58.057Z,6.27
2019-04-04T14:43:07.300Z,7.33
2019-04-04T14:47:10.302Z,6.73
2019-04-04T14:51:14.409Z,6.57
2019-04-04T14:55:17.949Z,7.00
2019-04-04T14:59:22.569Z,5.80
2019-04-04T15:03:25.622Z,7.37
2019-04-04T15:07:28.657Z,6.27
2019-04-04T15:11:31.713Z,6.10
2019-04-04T15:15:34.737Z,6.20
2019-04-04T15:19:37.880Z,5.70
2019-04-04T15:23:40.951Z,6.20
2019-04-04T15:27:44.703Z,7.40
2019-04-04T15:31:47.721Z,6.20
2019-04-04T15:35:50.752Z,6.50
2019-04-04T15:39:53.732Z,6.80
2019-04-04T15:43:56.990Z,6.33
2019-04-04T15:48:00.061Z,6.20
2019-04-04T15:52:03.807Z,6.50
2019-04-04T15:56:07.093Z,5.77
2019-04-04T16:00:10.417Z,5.97
2019-04-04T16:04:13.704Z,7.20
2019-04-04T16:08:16.944Z,6.40
2019-04-04T16:12:20.219Z,8.10
2019-04-04T16:16:23.655Z,9.53
2019-04-04T16:20:27.102Z,7.97
2019-04-04T16:24:30.337Z,9.93
2019-04-04T16:28:34.532Z,7.70
2019-04-04T16:32:37.544Z,7.90
2019-04-04T16:36:40.584Z,9.43
2019-04-04T16:40:43.779Z,6.73
2019-04-04T16:44:46.976Z,6.40
2019-04-04T16:48:50.065Z,7.13
2019-04-04T16:52:53.185Z,7.50
2019-04-04T16:56:56.495Z,5.90
2019-04-04T17:00:59.749Z,5.80
2019-04-04T17:05:04.229Z,6.27
2019-04-04T17:09:07.693Z,5.80
2019-04-04T17:13:10.729Z,5.40
2019-04-04T17:17:13.904Z,6.67
2019-04-04T17:21:17.143Z,5.50
2019-04-04T17:25:22.394Z,6.43
2019-04-04T17:29:28.292Z,6.50
2019-04-04T17:33:31.336Z,7.03
2019-04-04T17:37:35.075Z,6.40
2019-04-04T17:41:38.254Z,7.10
2019-04-04T17:45:41.627Z,6.33
2019-04-04T17:49:46.615Z,5.10
2019-04-04T17:53:52.380Z,5.03
2019-04-04T17:57:54.948Z,5.27
2019-04-04T18:01:57.956Z,6.00
2019-04-04T18:06:01.143Z,4.27
2019-04-04T18:10:05.396Z,5.97
2019-04-04T18:14:08.410Z,5.80
2019-04-04T18:18:11.490Z,4.97
2019-04-04T18:22:14.601Z,5.37
2019-04-04T18:26:17.769Z,6.20
2019-04-04T18:30:22.002Z,11.67
2019-04-04T18:34:25.011Z,11.03
2019-04-04T18:38:29.947Z,8.83
2019-04-04T18:42:33.158Z,9.13
2019-04-04T18:46:36.250Z,6.27
2019-04-04T18:50:39.549Z,6.30
2019-04-04T18:54:42.682Z,5.63
2019-04-04T18:58:45.769Z,6.20
2019-04-04T19:02:48.770Z,6.53
2019-04-04T19:06:51.810Z,5.83
2019-04-04T19:10:54.830Z,6.80
2019-04-04T19:14:57.845Z,6.17
2019-04-04T19:19:00.860Z,8.90
2019-04-04T19:23:03.948Z,8.83
2019-04-04T19:27:07.124Z,7.13
2019-04-04T19:31:10.959Z,7.83
2019-04-04T19:35:14.846Z,7.23
2019-04-04T19:39:17.952Z,7.00
2019-04-04T19:43:20.963Z,9.80
2019-04-04T19:47:25.459Z,8.93
2019-04-04T19:51:30.543Z,11.30
2019-04-04T19:55:33.747Z,8.13
2019-04-04T19:59:37.462Z,7.50
2019-04-04T20:03:40.603Z,10.40
2019-04-04T20:07:43.631Z,10.60
2019-04-04T20:11:46.648Z,8.60
2019-04-04T20:15:49.790Z,12.17
2019-04-04T20:19:52.792Z,10.23
2019-04-04T20:23:56.104Z,14.63
2019-04-04T20:27:59.147Z,10.47
2019-04-04T20:32:04.121Z,10.57
2019-04-04T20:36:07.130Z,9.47
2019-04-04T20:40:10.292Z,9.40
2019-04-04T20:44:13.384Z,13.13
2019-04-04T20:48:16.448Z,16.90
2019-04-04T20:52:19.557Z,11.80
2019-04-04T20:56:22.572Z,10.67
2019-04-04T21:00:25.598Z,12.73
2019-04-04T21:04:28.635Z,11.93
2019-04-04T21:08:31.653Z,10.90
2019-04-04T21:12:34.779Z,12.33
2019-04-04T21:16:37.791Z,12.20
2019-04-04T21:20:40.882Z,12.00
2019-04-04T21:24:44.058Z,11.97
2019-04-04T21:28:48.241Z,13.00
2019-04-04T21:32:52.856Z,11.67
2019-04-04T21:36:55.877Z,12.63
2019-04-04T21:40:58.925Z,14.43
2019-04-04T21:45:04.723Z,14.73
2019-04-04T21:49:07.745Z,16.13
2019-04-04T21:53:10.824Z,13.67
2019-04-04T21:57:13.884Z,12.43
2019-04-04T22:01:17.006Z,14.80
2019-04-04T22:05:20.036Z,17.33
2019-04-04T22:09:23.063Z,16.27
2019-04-04T22:13:26.148Z,13.00
2019-04-04T22:17:29.149Z,13.00
2019-04-04T22:21:32.159Z,15.60
2019-04-04T22:25:35.177Z,16.57
2019-04-04T22:29:38.221Z,16.63
2019-04-04T22:33:42.184Z,17.87
2019-04-04T22:37:45.203Z,17.87
2019-04-04T22:41:48.229Z,17.57
2019-04-04T22:45:51.242Z,15.57
2019-04-04T22:49:54.270Z,15.73
2019-04-04T22:53:57.312Z,17.57
2019-04-04T22:58:00.316Z,17.90
2019-04-04T23:02:03.353Z,16.93
2019-04-04T23:06:06.384Z,15.70
2019-04-04T23:10:09.652Z,19.13
2019-04-04T23:14:12.688Z,18.57
2019-04-04T23:18:15.998Z,16.60
2019-04-04T23:22:19.021Z,16.20
2019-04-04T23:26:22.040Z,16.20
2019-04-04T23:30:25.279Z,17.07
2019-04-04T23:34:29.311Z,20.30
2019-04-04T23:38:32.341Z,17.43
2019-04-04T23:42:35.355Z,17.13
2019-04-04T23:46:38.380Z,18.53
2019-04-04T23:50:41.423Z,19.23
2019-04-04T23:54:44.424Z,19.37
2019-04-04T23:58:47.457Z,19.47
